Weather at Memphis International Airport

Public forecast

Using degrees Fahrenheit for public forecast. Weather courtesy of forecast.io.

Current aviation weather report (METAR) for Memphis International Airport

Retrieved 2020/09/28 07:54 UTC (55 minutes ago):

KMEM 280754Z 19005KT 10SM FEW250 21/17 A2974 RMK AO2 SLP065 T02110172

Aviation forecast (TAF) for Memphis International Airport

Retrieved 2020/09/28 06:22 UTC (2 hours ago):

TAF KMEM 280520Z 2806/2912 19007KT P6SM SCT050 FM280800 22009KT P6SM VCSH FEW020 BKN040 FM281000 34010KT 6SM -SHRA BR FEW008 OVC016 FM281200 35011KT 4SM -RA BR OVC008 FM281700 35011G16KT P6SM VCSH SCT010 BKN020 FM281900 34012G18KT P6SM SCT030 BKN080 FM290000 33006KT P6SM FEW040 BKN120 AMD NOT SKED 2806/2809